Time,TemperatureF,DewpointF,PressureIn,WindDirection,WindDirectionDegrees,WindSpeedMPH,WindSpeedGustMPH,Humidity,HourlyPrecipIn,Conditions,Clouds,dailyrainin,SolarRadiationWatts/m^2,SoftwareType,DateUTC
2013-01-23 00:02:00,56.9,12.8,29.59,NW,309,3.0,3.2,17,-99.99,,,0.00,0,rob ver 1A,2013-01-23 07:02:00,
2013-01-23 00:07:00,57.6,12.8,29.59,NW,306,3.3,4.2,16,-99.99,,,0.00,0,rob ver 1A,2013-01-23 07:07:00,
2013-01-23 00:12:00,58.2,12.7,29.59,WNW,295,2.7,3.0,16,-99.99,,,0.00,0,rob ver 1A,2013-01-23 07:12:00,
2013-01-23 00:17:00,57.0,12.6,29.59,WNW,295,1.3,2.2,17,-99.99,,,0.00,0,rob ver 1A,2013-01-23 07:17:00,
2013-01-23 00:22:00,56.2,12.7,29.59,SE,133,1.2,1.6,17,-99.99,,,0.00,0,rob ver 1A,2013-01-23 07:22:00,
2013-01-23 00:27:00,56.5,12.8,29.59,West,279,1.0,1.3,17,-99.99,,,0.00,0,rob ver 1A,2013-01-23 07:27:00,
2013-01-23 00:32:00,57.2,12.9,29.59,West,264,1.9,1.9,17,-99.99,,,0.00,0,rob ver 1A,2013-01-23 07:32:00,
2013-01-23 00:37:00,56.8,12.8,29.59,West,272,1.6,1.7,17,-99.99,,,0.00,0,rob ver 1A,2013-01-23 07:37:00,
2013-01-23 00:43:00,56.5,13.0,29.59,WNW,284,1.9,2.2,17,-99.99,,,0.00,0,rob ver 1A,2013-01-23 07:43:00,
2013-01-23 00:48:00,56.3,12.9,29.59,NW,319,1.7,1.9,17,-99.99,,,0.00,0,rob ver 1A,2013-01-23 07:48:00,
2013-01-23 00:53:00,56.8,12.7,29.59,NW,309,2.2,2.3,17,-99.99,,,0.00,0,rob ver 1A,2013-01-23 07:53:00,
2013-01-23 00:58:00,56.8,12.6,29.59,North,355,0.6,1.0,17,-99.99,,,0.00,0,rob ver 1A,2013-01-23 07:58:00,
2013-01-23 01:03:00,56.4,12.5,29.59,NNW,338,1.7,1.8,17,-99.99,,,0.00,0,rob ver 1A,2013-01-23 08:03:00,
2013-01-23 01:08:00,56.9,12.6,29.59,NW,316,2.6,2.8,17,-99.99,,,0.00,0,rob ver 1A,2013-01-23 08:08:00,
2013-01-23 01:13:00,58.2,12.7,29.56,NW,322,4.1,4.5,16,-99.99,,,0.00,0,rob ver 1A,2013-01-23 08:13:00,
2013-01-23 01:18:00,58.5,12.5,29.56,NNW,337,3.9,4.2,16,-99.99,,,0.00,0,rob ver 1A,2013-01-23 08:18:00,
2013-01-23 01:24:00,58.4,12.6,29.56,North,351,4.5,5.0,16,-99.99,,,0.00,0,rob ver 1A,2013-01-23 08:24:00,
2013-01-23 01:29:00,58.9,12.6,29.56,North,9,3.9,4.5,15,-99.99,,,0.00,0,rob ver 1A,2013-01-23 08:29:00,
2013-01-23 01:34:00,59.7,12.5,29.56,North,11,2.6,3.1,15,-99.99,,,0.00,0,rob ver 1A,2013-01-23 08:34:00,
2013-01-23 01:39:00,57.9,12.1,29.56,SSW,205,1.5,2.2,16,-99.99,,,0.00,0,rob ver 1A,2013-01-23 08:39:00,
2013-01-23 01:44:00,57.7,12.5,29.56,NW,324,1.6,1.8,16,-99.99,,,0.00,0,rob ver 1A,2013-01-23 08:44:00,
2013-01-23 01:49:00,57.6,11.9,29.56,ESE,107,2.3,3.1,16,-99.99,,,0.00,0,rob ver 1A,2013-01-23 08:49:00,
2013-01-23 01:54:00,56.6,12.7,29.56,SW,216,3.0,3.4,17,-99.99,,,0.00,0,rob ver 1A,2013-01-23 08:54:00,
2013-01-23 01:59:00,56.3,13.0,29.56,SW,224,4.4,4.9,17,-99.99,,,0.00,0,rob ver 1A,2013-01-23 08:59:00,
2013-01-23 02:04:00,55.3,12.9,29.56,WSW,241,4.8,5.3,18,-99.99,,,0.00,0,rob ver 1A,2013-01-23 09:04:00,
2013-01-23 02:09:00,57.5,13.2,29.56,West,262,3.5,4.2,16,-99.99,,,0.00,0,rob ver 1A,2013-01-23 09:09:00,
2013-01-23 02:14:00,56.7,12.9,29.56,West,281,3.7,4.1,17,-99.99,,,0.00,0,rob ver 1A,2013-01-23 09:14:00,
2013-01-23 02:20:00,56.2,13.1,29.56,West,281,3.5,4.4,17,-99.99,,,0.00,0,rob ver 1A,2013-01-23 09:20:00,
2013-01-23 02:25:00,55.3,13.2,29.56,West,271,4.6,5.3,18,-99.99,,,0.00,0,rob ver 1A,2013-01-23 09:25:00,
2013-01-23 02:30:00,54.0,13.5,29.56,West,276,5.2,6.7,19,-99.99,,,0.00,0,rob ver 1A,2013-01-23 09:30:00,
2013-01-23 02:35:00,53.5,13.8,29.59,WNW,288,5.6,7.1,20,-99.99,,,0.00,0,rob ver 1A,2013-01-23 09:35:00,
2013-01-23 02:40:00,53.7,13.9,29.59,WNW,292,7.4,8.9,20,-99.99,,,0.00,0,rob ver 1A,2013-01-23 09:40:00,
2013-01-23 02:46:00,53.5,14.1,29.59,WNW,288,6.9,8.1,20,-99.99,,,0.00,0,rob ver 1A,2013-01-23 09:46:00,
2013-01-23 02:51:00,53.4,14.3,29.59,WNW,290,7.6,8.9,20,-99.99,,,0.00,0,rob ver 1A,2013-01-23 09:51:00,
2013-01-23 02:56:00,53.9,14.3,29.59,WNW,296,6.9,7.8,20,-99.99,,,0.00,0,rob ver 1A,2013-01-23 09:56:00,
2013-01-23 03:01:00,54.0,14.2,29.59,WNW,288,6.6,7.2,20,-99.99,,,0.00,0,rob ver 1A,2013-01-23 10:01:00,
2013-01-23 03:06:00,53.5,14.2,29.59,NW,306,6.5,7.2,20,-99.99,,,0.00,0,rob ver 1A,2013-01-23 10:06:00,
2013-01-23 03:11:00,54.0,14.2,29.59,NW,317,7.6,9.1,20,-99.99,,,0.00,0,rob ver 1A,2013-01-23 10:11:00,
2013-01-23 03:16:00,55.7,14.1,29.56,NW,323,8.0,9.6,19,-99.99,,,0.00,0,rob ver 1A,2013-01-23 10:16:00,
2013-01-23 03:21:00,55.6,14.1,29.59,NW,311,7.2,8.5,19,-99.99,,,0.00,0,rob ver 1A,2013-01-23 10:21:00,
2013-01-23 03:26:00,55.0,14.1,29.56,NW,319,6.5,7.7,19,-99.99,,,0.00,0,rob ver 1A,2013-01-23 10:26:00,
2013-01-23 03:31:00,55.5,14.1,29.56,NNW,328,7.6,8.9,19,-99.99,,,0.00,0,rob ver 1A,2013-01-23 10:31:00,
2013-01-23 03:36:00,55.8,14.1,29.56,NW,326,7.6,9.0,19,-99.99,,,0.00,0,rob ver 1A,2013-01-23 10:36:00,
2013-01-23 03:41:00,55.9,14.4,29.56,NW,316,5.9,7.2,19,-99.99,,,0.00,0,rob ver 1A,2013-01-23 10:41:00,
2013-01-23 03:46:00,55.7,14.4,29.59,North,351,1.3,2.2,19,-99.99,,,0.00,0,rob ver 1A,2013-01-23 10:46:00,
2013-01-23 03:51:00,54.4,13.9,29.56,East,86,3.2,3.6,19,-99.99,,,0.00,0,rob ver 1A,2013-01-23 10:51:00,
2013-01-23 03:57:00,53.6,13.9,29.56,ENE,64,3.9,4.3,20,-99.99,,,0.00,0,rob ver 1A,2013-01-23 10:57:00,
2013-01-23 04:02:00,55.5,14.2,29.56,NNW,344,5.1,5.6,18,-99.99,,,0.00,0,rob ver 1A,2013-01-23 11:02:00,
2013-01-23 04:07:00,56.9,13.9,29.56,North,354,6.5,7.0,18,-99.99,,,0.00,0,rob ver 1A,2013-01-23 11:07:00,
2013-01-23 04:12:00,55.3,13.9,29.56,NNE,20,6.6,7.2,19,-99.99,,,0.00,0,rob ver 1A,2013-01-23 11:12:00,
2013-01-23 04:17:00,54.2,13.9,29.56,ENE,78,6.1,7.0,20,-99.99,,,0.00,0,rob ver 1A,2013-01-23 11:17:00,
2013-01-23 04:22:00,53.1,14.4,29.56,East,84,3.0,4.2,21,-99.99,,,0.00,0,rob ver 1A,2013-01-23 11:22:00,
2013-01-23 04:27:00,52.3,14.8,29.56,East,89,5.2,6.0,22,-99.99,,,0.00,0,rob ver 1A,2013-01-23 11:27:00,
2013-01-23 04:32:00,51.1,14.5,29.56,SSE,161,4.4,5.4,23,-99.99,,,0.00,0,rob ver 1A,2013-01-23 11:32:00,
2013-01-23 04:37:00,51.2,15.1,29.56,SSE,158,2.1,3.2,23,-99.99,,,0.00,0,rob ver 1A,2013-01-23 11:37:00,
2013-01-23 04:43:00,51.4,15.0,29.56,SSE,161,3.2,3.8,23,-99.99,,,0.00,0,rob ver 1A,2013-01-23 11:43:00,
2013-01-23 04:48:00,51.0,15.0,29.56,ESE,113,1.4,1.8,23,-99.99,,,0.00,0,rob ver 1A,2013-01-23 11:48:00,
2013-01-23 04:53:00,50.9,15.1,29.56,ESE,106,1.9,2.2,23,-99.99,,,0.00,0,rob ver 1A,2013-01-23 11:53:00,
2013-01-23 04:58:00,50.5,15.0,29.56,SSW,193,2.1,2.3,23,-99.99,,,0.00,0,rob ver 1A,2013-01-23 11:58:00,
2013-01-23 05:03:00,50.7,15.3,29.56,WSW,242,1.6,1.7,24,-99.99,,,0.00,0,rob ver 1A,2013-01-23 12:03:00,
2013-01-23 05:08:00,50.8,15.4,29.56,West,278,1.7,2.1,23,-99.99,,,0.00,0,rob ver 1A,2013-01-23 12:08:00,
2013-01-23 05:13:00,51.4,15.3,29.56,NNW,346,1.6,1.9,23,-99.99,,,0.00,0,rob ver 1A,2013-01-23 12:13:00,
2013-01-23 05:18:00,52.3,15.3,29.56,North,9,3.5,3.9,22,-99.99,,,0.00,0,rob ver 1A,2013-01-23 12:18:00,
2013-01-23 05:23:00,52.0,15.0,29.56,NNW,343,4.3,4.5,22,-99.99,,,0.00,0,rob ver 1A,2013-01-23 12:23:00,
2013-01-23 05:29:00,50.5,14.7,29.56,North,0,3.8,4.2,23,-99.99,,,0.00,0,rob ver 1A,2013-01-23 12:29:00,
2013-01-23 05:34:00,50.8,14.5,29.56,North,350,2.6,2.9,23,-99.99,,,0.00,0,rob ver 1A,2013-01-23 12:34:00,
2013-01-23 05:39:00,50.8,14.3,29.56,NE,44,3.6,4.2,22,-99.99,,,0.00,0,rob ver 1A,2013-01-23 12:39:00,
2013-01-23 05:44:00,51.2,14.2,29.56,NE,55,4.1,4.8,22,-99.99,,,0.00,0,rob ver 1A,2013-01-23 12:44:00,
2013-01-23 05:49:00,51.2,14.3,29.56,NE,53,4.2,5.1,22,-99.99,,,0.00,0,rob ver 1A,2013-01-23 12:49:00,
2013-01-23 05:54:00,52.3,14.3,29.56,ENE,73,2.8,3.2,21,-99.99,,,0.00,0,rob ver 1A,2013-01-23 12:54:00,
2013-01-23 05:59:00,50.7,13.9,29.56,SE,143,3.5,4.2,23,-99.99,,,0.00,0,rob ver 1A,2013-01-23 12:59:00,
2013-01-23 06:04:00,49.1,14.3,29.56,SE,139,2.6,3.0,24,-99.99,,,0.00,0,rob ver 1A,2013-01-23 13:04:00,
2013-01-23 06:09:00,48.9,14.6,29.59,SE,141,2.2,2.3,25,-99.99,,,0.00,0,rob ver 1A,2013-01-23 13:09:00,
2013-01-23 06:14:00,49.2,14.7,29.59,SE,142,0.7,1.1,24,-99.99,,,0.00,0,rob ver 1A,2013-01-23 13:14:00,
2013-01-23 06:19:00,49.2,14.8,29.59,ESE,113,1.6,2.0,24,-99.99,,,0.00,0,rob ver 1A,2013-01-23 13:19:00,
2013-01-23 06:24:00,49.4,14.8,29.59,SE,140,2.2,2.6,24,-99.99,,,0.00,0,rob ver 1A,2013-01-23 13:24:00,
2013-01-23 06:29:00,49.2,14.8,29.59,SE,143,1.1,1.3,24,-99.99,,,0.00,0,rob ver 1A,2013-01-23 13:29:00,
2013-01-23 06:34:00,49.5,14.8,29.59,NE,53,2.6,2.9,24,-99.99,,,0.00,0,rob ver 1A,2013-01-23 13:34:00,
2013-01-23 06:39:00,49.9,14.7,29.59,NNE,29,2.9,3.0,24,-99.99,,,0.00,0,rob ver 1A,2013-01-23 13:39:00,
2013-01-23 06:44:00,50.6,15.0,29.59,NNE,22,2.8,3.2,23,-99.99,,,0.00,0,rob ver 1A,2013-01-23 13:44:00,
2013-01-23 06:49:00,50.2,14.8,29.59,North,4,3.0,3.2,24,-99.99,,,0.00,0,rob ver 1A,2013-01-23 13:49:00,
2013-01-23 06:54:00,50.2,15.3,29.59,NE,34,2.6,2.9,24,-99.99,,,0.00,0,rob ver 1A,2013-01-23 13:54:00,
2013-01-23 06:59:00,51.2,15.7,29.59,NNE,13,2.8,3.0,23,-99.99,,,0.00,0,rob ver 1A,2013-01-23 13:59:00,
2013-01-23 07:04:00,51.5,15.7,29.59,North,9,4.4,4.7,23,-99.99,,,0.00,0,rob ver 1A,2013-01-23 14:04:00,
2013-01-23 07:09:00,51.9,15.7,29.59,North,11,4.9,5.1,23,-99.99,,,0.00,0,rob ver 1A,2013-01-23 14:09:00,
2013-01-23 07:15:00,52.0,15.5,29.59,NNW,348,3.3,3.6,23,-99.99,,,0.00,.329,rob ver 1A,2013-01-23 14:15:00,
2013-01-23 07:20:00,52.0,15.3,29.59,North,350,3.9,4.1,22,-99.99,,,0.00,.329,rob ver 1A,2013-01-23 14:20:00,
2013-01-23 07:25:00,51.6,15.0,29.59,North,1,4.1,4.5,22,-99.99,,,0.00,1.643,rob ver 1A,2013-01-23 14:25:00,
2013-01-23 07:30:00,52.5,15.1,29.59,NNW,327,4.5,5.2,22,-99.99,,,0.00,3.944,rob ver 1A,2013-01-23 14:30:00,
2013-01-23 07:35:00,53.3,15.0,29.59,NNW,345,5.0,5.7,21,-99.99,,,0.00,2.629,rob ver 1A,2013-01-23 14:35:00,
2013-01-23 07:40:00,53.0,15.0,29.59,NNW,338,3.7,4.5,21,-99.99,,,0.00,2.301,rob ver 1A,2013-01-23 14:40:00,
2013-01-23 07:45:00,53.0,15.0,29.59,WNW,303,3.8,4.1,21,-99.99,,,0.00,3.287,rob ver 1A,2013-01-23 14:45:00,
2013-01-23 07:50:00,52.7,15.0,29.59,NW,316,3.3,4.3,22,-99.99,,,0.00,7.07,rob ver 1A,2013-01-23 14:50:00,
2013-01-23 07:55:00,52.6,15.0,29.59,NNW,329,3.3,4.2,22,-99.99,,,0.00,12.16,rob ver 1A,2013-01-23 14:55:00,
2013-01-23 08:00:00,53.4,15.1,29.59,NW,322,3.7,4.9,21,-99.99,,,0.00,19.06,rob ver 1A,2013-01-23 15:00:00,
2013-01-23 08:06:00,53.6,15.2,29.59,NW,320,2.6,3.3,21,-99.99,,,0.00,24.98,rob ver 1A,2013-01-23 15:06:00,
2013-01-23 08:11:00,53.5,15.1,29.59,North,352,2.0,2.4,21,-99.99,,,0.00,30.9,rob ver 1A,2013-01-23 15:11:00,
2013-01-23 08:16:00,53.5,15.2,29.59,NNW,338,3.2,3.8,21,-99.99,,,0.00,38.13,rob ver 1A,2013-01-23 15:16:00,
2013-01-23 08:21:00,53.4,15.6,29.62,NW,310,4.3,4.7,22,-99.99,,,0.00,46.01,rob ver 1A,2013-01-23 15:21:00,
2013-01-23 08:26:00,53.4,15.6,29.62,WNW,293,4.4,5.1,22,-99.99,,,0.00,58.01,rob ver 1A,2013-01-23 15:26:00,
2013-01-23 08:31:00,52.8,15.7,29.62,West,280,3.4,4.1,22,-99.99,,,0.00,108.1,rob ver 1A,2013-01-23 15:31:00,
2013-01-23 08:36:00,54.1,16.0,29.62,WNW,297,3.1,3.4,21,-99.99,,,0.00,174.2,rob ver 1B,2013-01-23 15:36:00,
2013-01-23 08:41:00,54.4,16.6,29.62,WNW,297,2.7,3.6,22,-99.99,,,0.00,182.7,rob ver 1A,2013-01-23 15:41:00,
2013-01-23 08:46:00,54.4,16.6,29.62,WNW,298,3.3,3.8,22,-99.99,,,0.00,76.4,rob ver 1A,2013-01-23 15:46:00,
2013-01-23 08:51:00,54.0,16.7,29.62,WNW,300,4.1,4.6,22,-99.99,,,0.00,87.9,rob ver 1A,2013-01-23 15:51:00,
2013-01-23 08:56:00,54.2,16.8,29.62,NW,310,3.2,3.6,22,-99.99,,,0.00,131.8,rob ver 1A,2013-01-23 15:56:00,
2013-01-23 09:01:00,54.6,17.1,29.62,NW,318,4.1,5.0,22,-99.99,,,0.00,158.2,rob ver 1B,2013-01-23 16:01:00,
2013-01-23 09:06:00,55.7,16.9,29.62,WNW,298,4.5,5.8,21,-99.99,,,0.00,266.9,rob ver 1A,2013-01-23 16:06:00,
2013-01-23 09:11:00,56.2,16.9,29.62,WNW,294,5.1,6.4,20,-99.99,,,0.00,126.5,rob ver 1A,2013-01-23 16:11:00,
2013-01-23 09:16:00,55.9,16.6,29.62,WNW,302,5.7,6.3,21,-99.99,,,0.00,234.7,rob ver 1A,2013-01-23 16:16:00,
2013-01-23 09:21:00,57.0,16.7,29.62,WNW,298,6.7,7.9,20,-99.99,,,0.00,372.5,rob ver 1A,2013-01-23 16:21:00,
2013-01-23 09:26:00,57.7,16.8,29.62,NW,305,7.1,8.4,20,-99.99,,,0.00,387.1,rob ver 1A,2013-01-23 16:26:00,
2013-01-23 09:31:00,58.4,17.0,29.62,NW,304,7.4,8.5,19,-99.99,,,0.00,219.5,rob ver 1A,2013-01-23 16:31:00,
2013-01-23 09:36:00,58.4,17.0,29.62,NW,311,6.9,8.0,19,-99.99,,,0.00,198.9,rob ver 1A,2013-01-23 16:36:00,
2013-01-23 09:41:00,58.2,16.6,29.62,NW,310,6.2,7.4,19,-99.99,,,0.00,124.8,rob ver 1A,2013-01-23 16:41:00,
2013-01-23 09:46:00,58.1,16.7,29.62,WNW,301,6.8,8.0,19,-99.99,,,0.00,166.2,rob ver 1A,2013-01-23 16:46:00,
2013-01-23 09:51:00,58.5,16.9,29.62,WNW,295,5.4,6.5,19,-99.99,,,0.00,459.3,rob ver 1B,2013-01-23 16:51:00,
2013-01-23 09:57:00,59.8,16.6,29.62,WNW,303,7.1,7.9,18,-99.99,,,0.00,260,rob ver 1A,2013-01-23 16:57:00,
2013-01-23 10:02:00,59.1,16.7,29.62,WNW,297,7.0,7.8,18,-99.99,,,0.00,300.9,rob ver 1A,2013-01-23 17:02:00,
2013-01-23 10:07:00,60.2,16.4,29.62,NW,307,7.3,8.2,17,-99.99,,,0.00,237.3,rob ver 1A,2013-01-23 17:07:00,
2013-01-23 10:12:00,60.6,16.6,29.62,WNW,303,5.2,6.0,17,-99.99,,,0.00,371.3,rob ver 1A,2013-01-23 17:12:00,
2013-01-23 10:17:00,61.5,16.6,29.62,NW,314,4.8,6.0,17,-99.99,,,0.00,453.2,rob ver 1B,2013-01-23 17:17:00,
2013-01-23 10:22:00,61.6,16.2,29.62,NW,305,4.8,5.7,16,-99.99,,,0.00,149.1,rob ver 1A,2013-01-23 17:22:00,
2013-01-23 10:27:00,61.4,16.0,29.65,WNW,291,5.4,6.7,16,-99.99,,,0.00,143.8,rob ver 1A,2013-01-23 17:27:00,
2013-01-23 10:32:00,61.5,16.3,29.65,West,272,5.7,6.4,17,-99.99,,,0.00,134.6,rob ver 1A,2013-01-23 17:32:00,
2013-01-23 10:37:00,61.2,16.4,29.65,WNW,285,5.3,6.4,17,-99.99,,,0.00,146.5,rob ver 1A,2013-01-23 17:37:00,
2013-01-23 10:42:00,61.4,16.6,29.62,WNW,295,4.9,5.6,17,-99.99,,,0.00,467.6,rob ver 1A,2013-01-23 17:42:00,
2013-01-23 10:47:00,62.8,16.8,29.62,WNW,300,4.9,5.7,16,-99.99,,,0.00,442.2,rob ver 1A,2013-01-23 17:47:00,
2013-01-23 10:52:00,63.2,16.3,29.62,NW,305,6.5,7.9,15,-99.99,,,0.00,336.6,rob ver 1A,2013-01-23 17:52:00,
2013-01-23 10:57:00,63.5,16.4,29.62,NW,305,6.5,7.7,16,-99.99,,,0.00,269.3,rob ver 1A,2013-01-23 17:57:00,
2013-01-23 11:02:00,63.2,16.2,29.62,WNW,302,5.9,7.0,15,-99.99,,,0.00,227.7,rob ver 1A,2013-01-23 18:02:00,
2013-01-23 11:07:00,63.4,16.7,29.62,WNW,291,5.1,6.0,16,-99.99,,,0.00,222.5,rob ver 1A,2013-01-23 18:07:00,
2013-01-23 11:12:00,63.5,16.4,29.62,WNW,296,5.2,6.2,15,-99.99,,,0.00,227.2,rob ver 1A,2013-01-23 18:12:00,
2013-01-23 11:17:00,64.0,16.7,29.62,WNW,302,4.8,5.6,15,-99.99,,,0.00,325.7,rob ver 1A,2013-01-23 18:17:00,
2013-01-23 11:22:00,64.3,16.6,29.62,WNW,297,4.9,5.7,15,-99.99,,,0.00,307.3,rob ver 1A,2013-01-23 18:22:00,
2013-01-23 11:27:00,64.8,16.8,29.62,WNW,301,4.5,5.1,15,-99.99,,,0.00,396.3,rob ver 1A,2013-01-23 18:27:00,
2013-01-23 11:32:00,64.9,16.9,29.62,West,278,6.3,7.5,15,-99.99,,,0.00,289.6,rob ver 1A,2013-01-23 18:32:00,
2013-01-23 11:37:00,64.9,17.1,29.62,West,274,6.1,7.0,15,-99.99,,,0.00,485.2,rob ver 1A,2013-01-23 18:37:00,
2013-01-23 11:42:00,66.3,17.3,29.62,WNW,287,5.6,6.7,14,-99.99,,,0.00,750,rob ver 1A,2013-01-23 18:42:00,
2013-01-23 11:47:00,67.3,16.8,29.62,West,273,5.8,7.6,14,-99.99,,,0.00,732,rob ver 1A,2013-01-23 18:47:00,
2013-01-23 11:53:00,67.5,16.8,29.62,West,276,5.5,7.5,14,-99.99,,,0.00,693.5,rob ver 1A,2013-01-23 18:53:00,
2013-01-23 11:58:00,68.8,17.2,29.62,WNW,297,3.9,6.0,13,-99.99,,,0.00,663.9,rob ver 1B,2013-01-23 18:58:00,
2013-01-23 12:03:00,69.1,17.2,29.62,WNW,290,4.7,6.3,13,-99.99,,,0.00,641.4,rob ver 1A,2013-01-23 19:03:00,
2013-01-23 12:08:00,69.6,17.5,29.62,WNW,294,5.4,6.8,13,-99.99,,,0.00,642.8,rob ver 1A,2013-01-23 19:08:00,
2013-01-23 12:13:00,70.2,17.7,29.62,WNW,299,4.5,6.4,13,-99.99,,,0.00,631.1,rob ver 1A,2013-01-23 19:13:00,
2013-01-23 12:18:00,70.7,17.7,29.62,NW,314,4.0,5.3,13,-99.99,,,0.00,603.5,rob ver 1A,2013-01-23 19:18:00,
2013-01-23 12:23:00,71.3,17.9,29.59,NNW,327,2.0,4.4,13,-99.99,,,0.00,645.7,rob ver 1A,2013-01-23 19:23:00,
2013-01-23 12:28:00,71.9,18.3,29.59,NNW,344,5.3,7.0,12,-99.99,,,0.00,616.9,rob ver 1A,2013-01-23 19:28:00,
2013-01-23 12:33:00,72.4,18.2,29.59,NW,324,2.1,3.0,12,-99.99,,,0.00,417.2,rob ver 1A,2013-01-23 19:33:00,
2013-01-23 12:38:00,72.8,18.1,29.59,WNW,284,4.6,6.2,12,-99.99,,,0.00,687.4,rob ver 1A,2013-01-23 19:38:00,
2013-01-23 12:43:00,73.5,18.6,29.59,WNW,291,1.0,2.2,12,-99.99,,,0.00,697.2,rob ver 1A,2013-01-23 19:43:00,
2013-01-23 12:48:00,73.8,18.4,29.59,West,278,3.7,6.2,12,-99.99,,,0.00,691.4,rob ver 1A,2013-01-23 19:48:00,
2013-01-23 12:53:00,73.3,18.3,29.59,WNW,283,3.9,5.5,12,-99.99,,,0.00,685.5,rob ver 1A,2013-01-23 19:53:00,
2013-01-23 12:58:00,74.0,18.6,29.59,WNW,298,4.8,6.5,12,-99.99,,,0.00,683,rob ver 1A,2013-01-23 19:58:00,
2013-01-23 13:03:00,73.1,18.2,29.59,WSW,254,5.4,7.5,12,-99.99,,,0.00,635.9,rob ver 1A,2013-01-23 20:03:00,
2013-01-23 13:08:00,73.3,18.4,29.59,WNW,288,7.9,10.5,12,-99.99,,,0.00,650.9,rob ver 1A,2013-01-23 20:08:00,
2013-01-23 13:13:00,74.2,18.7,29.59,West,276,7.9,9.9,12,-99.99,,,0.00,521.5,rob ver 1A,2013-01-23 20:13:00,
2013-01-23 13:18:00,74.2,19.3,29.59,West,277,8.6,10.6,12,-99.99,,,0.00,595.9,rob ver 1A,2013-01-23 20:18:00,
2013-01-23 13:23:00,74.5,19.4,29.56,WNW,284,6.1,7.8,12,-99.99,,,0.00,637.1,rob ver 1A,2013-01-23 20:23:00,
2013-01-23 13:28:00,74.8,19.3,29.56,West,276,6.7,9.2,12,-99.99,,,0.00,629.2,rob ver 1A,2013-01-23 20:28:00,
2013-01-23 13:33:00,74.8,19.2,29.56,WSW,245,6.6,7.9,12,-99.99,,,0.00,593.9,rob ver 1A,2013-01-23 20:33:00,
2013-01-23 13:38:00,74.4,19.1,29.56,WSW,238,4.7,8.1,12,-99.99,,,0.00,646.2,rob ver 1A,2013-01-23 20:38:00,
2013-01-23 13:43:00,75.0,19.2,29.56,West,272,7.5,9.2,12,-99.99,,,0.00,617.8,rob ver 1A,2013-01-23 20:43:00,
2013-01-23 13:49:00,74.8,19.2,29.56,West,267,5.4,7.7,12,-99.99,,,0.00,640.1,rob ver 1A,2013-01-23 20:49:00,
2013-01-23 13:54:00,75.0,19.3,29.56,West,269,7.1,8.7,12,-99.99,,,0.00,561.8,rob ver 1A,2013-01-23 20:54:00,
2013-01-23 13:59:00,75.1,19.4,29.56,SW,235,4.0,6.0,12,-99.99,,,0.00,433.1,rob ver 1A,2013-01-23 20:59:00,
2013-01-23 14:04:00,75.3,19.5,29.56,West,259,2.9,4.3,12,-99.99,,,0.00,473.1,rob ver 1A,2013-01-23 21:04:00,
2013-01-23 14:09:00,75.4,19.4,29.56,SW,227,2.2,3.5,12,-99.99,,,0.00,330.5,rob ver 1A,2013-01-23 21:09:00,
2013-01-23 14:14:00,75.9,19.6,29.56,WSW,243,5.3,6.4,11,-99.99,,,0.00,516.7,rob ver 1A,2013-01-23 21:14:00,
2013-01-23 14:19:00,76.2,19.8,29.56,WSW,253,2.8,4.8,11,-99.99,,,0.00,694.4,rob ver 1A,2013-01-23 21:19:00,
2013-01-23 14:24:00,76.8,19.8,29.56,WSW,254,3.7,6.4,11,-99.99,,,0.00,651.9,rob ver 1A,2013-01-23 21:24:00,
2013-01-23 14:29:00,77.4,20.0,29.56,SW,216,2.0,2.9,11,-99.99,,,0.00,599,rob ver 1A,2013-01-23 21:29:00,
2013-01-23 14:34:00,78.0,20.2,29.56,WSW,238,2.9,3.9,11,-99.99,,,0.00,590.6,rob ver 1A,2013-01-23 21:34:00,
2013-01-23 14:39:00,76.7,19.7,29.56,South,169,2.9,4.4,11,-99.99,,,0.00,571.7,rob ver 1B,2013-01-23 21:39:00,
2013-01-23 14:44:00,77.2,20.0,29.53,South,189,4.0,6.4,11,-99.99,,,0.00,164.2,rob ver 1A,2013-01-23 21:44:00,
2013-01-23 14:49:00,75.8,19.9,29.56,SSE,148,4.9,8.5,12,-99.99,,,0.00,178.7,rob ver 1A,2013-01-23 21:49:00,
2013-01-23 14:54:00,75.3,20.1,29.56,SSE,168,3.1,3.9,12,-99.99,,,0.00,224.2,rob ver 1A,2013-01-23 21:54:00,
2013-01-23 15:00:00,76.3,20.4,29.53,SW,225,2.8,4.0,12,-99.99,,,0.00,264.6,rob ver 1A,2013-01-23 22:00:00,
2013-01-23 15:05:00,76.9,20.6,29.53,SW,219,1.5,2.1,12,-99.99,,,0.00,257.3,rob ver 1A,2013-01-23 22:05:00,
2013-01-23 15:10:00,77.1,20.7,29.53,SSW,212,2.9,4.7,12,-99.99,,,0.00,241.3,rob ver 1A,2013-01-23 22:10:00,
2013-01-23 15:15:00,76.4,20.7,29.53,WSW,237,2.2,4.8,12,-99.99,,,0.00,229.8,rob ver 1B,2013-01-23 22:15:00,
2013-01-23 15:20:00,76.2,20.7,29.53,South,182,2.6,3.9,12,-99.99,,,0.00,252.8,rob ver 1A,2013-01-23 22:20:00,
2013-01-23 15:25:00,76.7,20.8,29.53,South,180,2.9,5.3,12,-99.99,,,0.00,260,rob ver 1A,2013-01-23 22:25:00,
2013-01-23 15:30:00,76.8,21.1,29.53,SSW,192,1.4,3.5,12,-99.99,,,0.00,247.5,rob ver 1A,2013-01-23 22:30:00,
2013-01-23 15:35:00,76.8,21.4,29.53,SSE,158,2.0,2.6,12,-99.99,,,0.00,249.5,rob ver 1A,2013-01-23 22:35:00,
2013-01-23 15:40:00,77.6,21.7,29.53,ENE,76,1.7,2.2,12,-99.99,,,0.00,211.6,rob ver 1B,2013-01-23 22:40:00,
2013-01-23 15:45:00,77.7,20.7,29.53,WNW,286,2.7,3.7,12,-99.99,,,0.00,211.8,rob ver 1A,2013-01-23 22:45:00,
2013-01-23 15:50:00,76.9,20.4,29.53,West,265,4.9,5.7,11,-99.99,,,0.00,287.5,rob ver 1A,2013-01-23 22:50:00,
2013-01-23 15:55:00,76.8,20.5,29.53,West,267,5.8,6.8,11,-99.99,,,0.00,229.5,rob ver 1A,2013-01-23 22:55:00,
2013-01-23 16:00:00,76.1,20.2,29.53,West,260,7.2,9.1,12,-99.99,,,0.00,179.3,rob ver 1A,2013-01-23 23:00:00,
2013-01-23 16:05:00,76.0,20.2,29.53,WSW,254,6.6,7.4,12,-99.99,,,0.00,163.3,rob ver 1A,2013-01-23 23:05:00,
2013-01-23 16:10:00,75.8,20.2,29.53,WSW,256,6.0,7.1,12,-99.99,,,0.00,165.6,rob ver 1A,2013-01-23 23:10:00,
2013-01-23 16:15:00,75.6,20.2,29.53,West,265,5.1,6.1,12,-99.99,,,0.00,129.8,rob ver 1A,2013-01-23 23:15:00,
2013-01-23 16:20:00,75.6,20.2,29.53,WSW,246,4.4,5.6,12,-99.99,,,0.00,103.3,rob ver 1A,2013-01-23 23:20:00,
2013-01-23 16:25:00,75.5,20.3,29.53,West,261,5.8,6.4,12,-99.99,,,0.00,118,rob ver 1A,2013-01-23 23:25:00,
2013-01-23 16:30:00,75.4,20.3,29.53,West,260,5.7,6.7,12,-99.99,,,0.00,146.5,rob ver 1B,2013-01-23 23:30:00,
2013-01-23 16:35:00,75.4,20.4,29.53,WSW,255,5.5,6.3,12,-99.99,,,0.00,142.1,rob ver 1A,2013-01-23 23:35:00,
2013-01-23 16:40:00,75.6,20.4,29.53,West,263,5.4,5.9,12,-99.99,,,0.00,129.8,rob ver 1A,2013-01-23 23:40:00,
2013-01-23 16:45:00,75.2,20.3,29.53,West,267,4.3,4.7,12,-99.99,,,0.00,111.8,rob ver 1A,2013-01-23 23:45:00,
2013-01-23 16:50:00,75.3,20.3,29.53,WSW,255,4.8,5.5,12,-99.99,,,0.00,109.2,rob ver 1A,2013-01-23 23:50:00,
2013-01-23 16:55:00,75.2,20.4,29.53,West,269,4.1,4.8,12,-99.99,,,0.00,101,rob ver 1A,2013-01-23 23:55:00,
2013-01-23 17:00:00,75.1,20.3,29.53,West,281,4.4,5.1,12,-99.99,,,0.00,69.84,rob ver 1A,2013-01-24 00:00:00,
2013-01-23 17:05:00,75.0,20.4,29.53,West,271,4.8,5.3,12,-99.99,,,0.00,48.2,rob ver 1A,2013-01-24 00:05:00,
2013-01-23 17:10:00,74.9,20.4,29.53,West,270,3.7,4.2,12,-99.99,,,0.00,47.54,rob ver 1A,2013-01-24 00:10:00,
2013-01-23 17:16:00,74.9,20.6,29.53,West,270,2.6,3.3,12,-99.99,,,0.00,53.12,rob ver 1A,2013-01-24 00:16:00,
2013-01-23 17:21:00,74.9,20.6,29.53,West,264,2.8,3.4,12,-99.99,,,0.00,59.68,rob ver 1A,2013-01-24 00:21:00,
2013-01-23 17:26:00,74.8,20.6,29.53,West,265,3.3,3.8,12,-99.99,,,0.00,67.23,rob ver 1A,2013-01-24 00:26:00,
2013-01-23 17:31:00,74.8,20.6,29.53,West,268,2.7,3.2,12,-99.99,,,0.00,63.62,rob ver 1A,2013-01-24 00:31:00,
2013-01-23 17:36:00,74.7,20.6,29.53,West,264,2.2,2.8,12,-99.99,,,0.00,51.16,rob ver 1A,2013-01-24 00:36:00,
2013-01-23 17:41:00,74.6,21.0,29.53,West,277,3.5,4.1,13,-99.99,,,0.00,42.31,rob ver 1A,2013-01-24 00:41:00,
2013-01-23 17:46:00,74.3,21.1,29.53,West,268,2.4,2.7,13,-99.99,,,0.00,31.16,rob ver 1A,2013-01-24 00:46:00,
2013-01-23 17:51:00,74.0,21.2,29.53,West,274,3.1,4.1,13,-99.99,,,0.00,15.41,rob ver 1A,2013-01-24 00:51:00,
2013-01-23 17:56:00,73.6,21.3,29.53,West,278,2.2,2.5,13,-99.99,,,0.00,8.53,rob ver 1A,2013-01-24 00:56:00,
2013-01-23 18:01:00,73.3,21.4,29.53,WNW,282,2.9,3.1,14,-99.99,,,0.00,2.296,rob ver 1A,2013-01-24 01:01:00,
2013-01-23 18:06:00,72.5,22.2,29.53,WNW,286,3.6,4.0,15,-99.99,,,0.00,.984,rob ver 1A,2013-01-24 01:06:00,
2013-01-23 18:11:00,72.1,22.7,29.53,WNW,290,3.3,3.4,15,-99.99,,,0.00,.82,rob ver 1A,2013-01-24 01:11:00,
2013-01-23 18:16:00,71.8,22.6,29.53,WNW,295,3.1,3.4,15,-99.99,,,0.00,.328,rob ver 1A,2013-01-24 01:16:00,
2013-01-23 18:21:00,71.2,22.7,29.53,West,275,4.3,4.5,15,-99.99,,,0.00,0,rob ver 1A,2013-01-24 01:21:00,
2013-01-23 18:26:00,70.7,22.7,29.53,West,263,4.0,4.5,16,-99.99,,,0.00,0,rob ver 1A,2013-01-24 01:26:00,
2013-01-23 18:31:00,70.4,22.9,29.53,West,262,4.2,4.6,16,-99.99,,,0.00,0,rob ver 1A,2013-01-24 01:31:00,
2013-01-23 18:36:00,70.1,23.0,29.53,West,276,4.2,4.5,16,-99.99,,,0.00,0,rob ver 1A,2013-01-24 01:36:00,
2013-01-23 18:41:00,69.5,23.0,29.56,West,280,3.4,3.7,17,-99.99,,,0.00,0,rob ver 1A,2013-01-24 01:41:00,
2013-01-23 18:46:00,69.3,23.4,29.56,WNW,290,4.5,4.9,17,-99.99,,,0.00,0,rob ver 1A,2013-01-24 01:46:00,
2013-01-23 18:51:00,69.2,23.2,29.56,WNW,291,5.3,6.2,17,-99.99,,,0.00,0,rob ver 1A,2013-01-24 01:51:00,
2013-01-23 18:56:00,69.0,23.2,29.56,West,280,4.7,5.1,17,-99.99,,,0.00,0,rob ver 1A,2013-01-24 01:56:00,
2013-01-23 19:01:00,68.7,23.3,29.53,WNW,283,4.2,4.7,17,-99.99,,,0.00,0,rob ver 1A,2013-01-24 02:01:00,
2013-01-23 19:06:00,68.5,23.4,29.53,WNW,291,3.7,4.2,18,-99.99,,,0.00,0,rob ver 1A,2013-01-24 02:06:00,
2013-01-23 19:11:00,68.4,23.6,29.56,WNW,303,3.4,4.0,18,-99.99,,,0.00,0,rob ver 1A,2013-01-24 02:11:00,
2013-01-23 19:16:00,68.5,23.9,29.53,WNW,299,4.3,5.4,18,-99.99,,,0.00,0,rob ver 1A,2013-01-24 02:16:00,
2013-01-23 19:21:00,68.3,24.3,29.53,NW,315,4.5,5.2,18,-99.99,,,0.00,0,rob ver 1A,2013-01-24 02:21:00,
2013-01-23 19:26:00,68.0,24.7,29.53,NW,318,4.3,5.4,19,-99.99,,,0.00,0,rob ver 1A,2013-01-24 02:26:00,
2013-01-23 19:31:00,68.2,24.7,29.56,NW,315,3.4,4.0,19,-99.99,,,0.00,0,rob ver 1A,2013-01-24 02:31:00,
2013-01-23 19:36:00,67.9,24.8,29.56,NW,315,4.0,4.3,19,-99.99,,,0.00,0,rob ver 1A,2013-01-24 02:36:00,
2013-01-23 19:42:00,67.6,24.8,29.56,NW,315,4.5,5.0,19,-99.99,,,0.00,0,rob ver 1A,2013-01-24 02:42:00,
2013-01-23 19:47:00,67.5,24.8,29.56,NW,314,4.2,4.6,19,-99.99,,,0.00,0,rob ver 1A,2013-01-24 02:47:00,
2013-01-23 19:52:00,67.4,24.9,29.56,NW,321,3.5,4.3,19,-99.99,,,0.00,0,rob ver 1A,2013-01-24 02:52:00,
2013-01-23 19:57:00,67.5,24.9,29.56,NW,320,3.4,4.1,19,-99.99,,,0.00,0,rob ver 1A,2013-01-24 02:57:00,
2013-01-23 20:02:00,67.5,24.8,29.56,NW,313,3.4,3.7,19,-99.99,,,0.00,0,rob ver 1A,2013-01-24 03:02:00,
2013-01-23 20:07:00,67.1,24.8,29.56,WNW,302,2.0,2.4,20,-99.99,,,0.00,0,rob ver 1A,2013-01-24 03:07:00,
2013-01-23 20:12:00,67.0,24.7,29.56,NW,310,2.4,3.2,20,-99.99,,,0.00,0,rob ver 1A,2013-01-24 03:12:00,
2013-01-23 20:17:00,67.1,25.1,29.56,WNW,296,3.4,3.7,20,-99.99,,,0.00,0,rob ver 1A,2013-01-24 03:17:00,
2013-01-23 20:22:00,67.1,25.3,29.53,NW,322,3.5,3.9,20,-99.99,,,0.00,0,rob ver 1A,2013-01-24 03:22:00,
2013-01-23 20:27:00,67.4,25.4,29.53,NNW,331,3.1,3.7,20,-99.99,,,0.00,0,rob ver 1A,2013-01-24 03:27:00,
2013-01-23 20:32:00,67.1,25.3,29.53,NW,323,2.2,2.6,20,-99.99,,,0.00,0,rob ver 1A,2013-01-24 03:32:00,
2013-01-23 20:37:00,67.2,25.3,29.53,WNW,302,1.9,2.1,20,-99.99,,,0.00,0,rob ver 1A,2013-01-24 03:37:00,
2013-01-23 20:42:00,67.0,25.2,29.53,West,259,2.2,2.4,20,-99.99,,,0.00,0,rob ver 1A,2013-01-24 03:42:00,
2013-01-23 20:47:00,66.1,24.8,29.53,WSW,240,2.0,2.2,20,-99.99,,,0.00,0,rob ver 1A,2013-01-24 03:47:00,
2013-01-23 20:52:00,65.8,24.8,29.53,West,263,2.6,2.7,21,-99.99,,,0.00,0,rob ver 1A,2013-01-24 03:52:00,
2013-01-23 20:57:00,65.5,24.7,29.53,West,279,2.4,2.6,21,-99.99,,,0.00,0,rob ver 1A,2013-01-24 03:57:00,
2013-01-23 21:02:00,65.1,24.8,29.56,WNW,299,1.1,1.3,21,-99.99,,,0.00,0,rob ver 1A,2013-01-24 04:02:00,
2013-01-23 21:07:00,65.2,25.1,29.56,NE,37,0.7,0.9,21,-99.99,,,0.00,0,rob ver 1A,2013-01-24 04:07:00,
2013-01-23 21:12:00,65.7,25.5,29.56,ENE,68,1.9,2.0,21,-99.99,,,0.00,0,rob ver 1A,2013-01-24 04:12:00,
2013-01-23 21:17:00,66.0,25.0,29.56,ENE,60,1.8,2.2,21,-99.99,,,0.00,0,rob ver 1A,2013-01-24 04:17:00,
2013-01-23 21:22:00,65.4,25.0,29.56,NE,38,2.3,2.6,21,-99.99,,,0.00,0,rob ver 1A,2013-01-24 04:22:00,
2013-01-23 21:27:00,65.5,24.5,29.56,SE,139,2.1,3.3,20,-99.99,,,0.00,0,rob ver 1A,2013-01-24 04:27:00,
2013-01-23 21:32:00,64.3,24.7,29.56,SE,138,1.7,2.0,22,-99.99,,,0.00,0,rob ver 1A,2013-01-24 04:32:00,
2013-01-23 21:37:00,64.2,24.8,29.56,SE,135,2.2,2.8,22,-99.99,,,0.00,0,rob ver 1A,2013-01-24 04:37:00,
2013-01-23 21:43:00,64.4,25.1,29.56,SSE,154,4.1,4.4,22,-99.99,,,0.00,0,rob ver 1A,2013-01-24 04:43:00,
2013-01-23 21:48:00,64.3,25.2,29.56,SE,143,2.4,2.8,22,-99.99,,,0.00,0,rob ver 1A,2013-01-24 04:48:00,
2013-01-23 21:53:00,64.5,25.3,29.56,SSE,149,2.6,3.1,22,-99.99,,,0.00,0,rob ver 1A,2013-01-24 04:53:00,
2013-01-23 21:58:00,64.6,25.2,29.56,South,183,1.6,2.0,22,-99.99,,,0.00,0,rob ver 1A,2013-01-24 04:58:00,
2013-01-23 22:00:00,64.5,25.2,29.56,WNW,284,0.9,1.1,22,-99.99,,,0.00,0,rob ver 1A,2013-01-24 05:00:00,
2013-01-23 22:01:00,64.5,25.3,29.56,WNW,303,1.3,1.6,22,-99.99,,,0.00,0,rob ver 1B,2013-01-24 05:01:00,
2013-01-23 22:02:00,64.5,25.1,29.56,NW,309,1.4,1.6,22,-99.99,,,0.00,0,rob ver 1B,2013-01-24 05:02:00,
2013-01-23 22:07:00,64.2,25.0,29.56,North,349,1.7,2.0,22,-99.99,,,0.00,0,rob ver 1A,2013-01-24 05:07:00,
2013-01-23 22:12:00,63.9,25.2,29.56,North,350,2.3,2.6,22,-99.99,,,0.00,0,rob ver 1A,2013-01-24 05:12:00,
2013-01-23 22:17:00,63.8,25.0,29.56,NNE,12,2.6,2.8,22,-99.99,,,0.00,0,rob ver 1A,2013-01-24 05:17:00,
2013-01-23 22:22:00,64.1,24.9,29.59,North,2,1.2,1.4,22,-99.99,,,0.00,0,rob ver 1A,2013-01-24 05:22:00,
2013-01-23 22:27:00,64.5,25.2,29.59,North,11,1.4,1.6,22,-99.99,,,0.00,0,rob ver 1A,2013-01-24 05:27:00,
2013-01-23 22:32:00,64.5,25.1,29.59,West,273,0.4,0.4,22,-99.99,,,0.00,0,rob ver 1A,2013-01-24 05:32:00,
2013-01-23 22:37:00,64.5,25.2,29.59,NNE,19,2.0,2.3,22,-99.99,,,0.00,0,rob ver 1A,2013-01-24 05:37:00,
2013-01-23 22:42:00,64.9,25.3,29.59,NNE,12,2.4,3.1,21,-99.99,,,0.00,0,rob ver 1A,2013-01-24 05:42:00,
2013-01-23 22:47:00,64.6,25.2,29.59,NNE,22,3.1,3.5,22,-99.99,,,0.00,0,rob ver 1A,2013-01-24 05:47:00,
2013-01-23 22:52:00,64.2,25.4,29.59,NNW,344,2.9,3.2,22,-99.99,,,0.00,0,rob ver 1A,2013-01-24 05:52:00,
2013-01-23 22:57:00,64.2,25.0,29.59,North,7,3.0,3.2,22,-99.99,,,0.00,0,rob ver 1A,2013-01-24 05:57:00,
2013-01-23 23:03:00,63.8,25.0,29.59,North,358,2.7,2.9,22,-99.99,,,0.00,0,rob ver 1A,2013-01-24 06:03:00,
2013-01-23 23:08:00,63.8,25.1,29.59,NNW,342,3.7,3.9,22,-99.99,,,0.00,0,rob ver 1A,2013-01-24 06:08:00,
2013-01-23 23:13:00,63.8,25.2,29.59,NNW,347,3.4,3.6,22,-99.99,,,0.00,0,rob ver 1A,2013-01-24 06:13:00,
2013-01-23 23:18:00,63.8,25.4,29.56,NNW,347,4.6,4.8,23,-99.99,,,0.00,0,rob ver 1A,2013-01-24 06:18:00,
2013-01-23 23:23:00,63.8,25.4,29.59,North,354,2.4,2.7,23,-99.99,,,0.00,0,rob ver 1A,2013-01-24 06:23:00,
2013-01-23 23:28:00,64.2,25.6,29.59,North,0,2.2,2.5,22,-99.99,,,0.00,0,rob ver 1A,2013-01-24 06:28:00,
2013-01-23 23:33:00,64.7,25.4,29.59,NE,44,1.7,2.2,22,-99.99,,,0.00,0,rob ver 1A,2013-01-24 06:33:00,
2013-01-23 23:38:00,63.8,25.0,29.59,ENE,64,1.9,2.4,22,-99.99,,,0.00,0,rob ver 1A,2013-01-24 06:38:00,
2013-01-23 23:43:00,63.3,24.8,29.59,ENE,73,2.6,2.9,22,-99.99,,,0.00,0,rob ver 1A,2013-01-24 06:43:00,
2013-01-23 23:48:00,63.3,25.0,29.59,SE,142,1.2,1.5,23,-99.99,,,0.00,0,rob ver 1A,2013-01-24 06:48:00,
2013-01-23 23:53:00,62.5,24.7,29.59,SE,135,2.6,3.0,23,-99.99,,,0.00,0,rob ver 1A,2013-01-24 06:53:00,
2013-01-23 23:58:00,62.5,25.1,29.59,NNW,328,2.6,2.9,23,-99.99,,,0.00,0,rob ver 1A,2013-01-24 06:58:00,